createdAt,value
2022-11-30T00:01:23.579Z,-0.02
2022-11-30T00:03:55.663Z,-0.04
2022-11-30T00:06:24.692Z,-0.06
2022-11-30T00:08:56.816Z,-0.11
2022-11-30T00:11:26.592Z,-0.13
2022-11-30T00:13:54.455Z,-0.16
2022-11-30T00:16:22.339Z,-0.18
2022-11-30T00:18:50.745Z,-0.17
2022-11-30T00:21:18.798Z,-0.17
2022-11-30T00:23:47.847Z,-0.17
2022-11-30T00:26:18.712Z,-0.17
2022-11-30T00:28:47.645Z,-0.17
2022-11-30T00:31:16.861Z,-0.15
2022-11-30T00:33:45.082Z,-0.13
2022-11-30T00:36:22.668Z,-0.11
2022-11-30T00:38:51.983Z,-0.12
2022-11-30T00:41:20.156Z,-0.15
2022-11-30T00:43:47.990Z,-0.18
2022-11-30T00:46:15.746Z,-0.19
2022-11-30T00:48:43.408Z,-0.19
2022-11-30T00:51:12.139Z,-0.18
2022-11-30T00:53:40.900Z,-0.16
2022-11-30T00:56:09.205Z,-0.13
2022-11-30T00:58:36.853Z,-0.10
2022-11-30T01:01:05.018Z,-0.10
2022-11-30T01:03:33.775Z,-0.08
2022-11-30T01:06:03.333Z,-0.07
2022-11-30T01:08:31.071Z,-0.05
2022-11-30T01:11:06.169Z,-0.07
2022-11-30T01:13:33.836Z,-0.12
2022-11-30T01:16:01.761Z,-0.14
2022-11-30T01:18:29.537Z,-0.16
2022-11-30T01:20:57.137Z,-0.17
2022-11-30T01:23:24.751Z,-0.19
2022-11-30T01:25:55.656Z,-0.23
2022-11-30T01:28:23.258Z,-0.24
2022-11-30T01:31:03.824Z,-0.25
2022-11-30T01:33:32.069Z,-0.27
2022-11-30T01:36:16.964Z,-0.29
2022-11-30T01:38:47.388Z,-0.31
2022-11-30T01:41:19.542Z,-0.35
2022-11-30T01:43:51.575Z,-0.38
2022-11-30T01:46:29.179Z,-0.40
2022-11-30T01:49:07.557Z,-0.42
2022-11-30T01:51:48.167Z,-0.44
2022-11-30T01:54:22.082Z,-0.46
2022-11-30T01:56:55.908Z,-0.49
2022-11-30T01:59:24.819Z,-0.51
2022-11-30T02:01:54.015Z,-0.49
2022-11-30T02:04:29.063Z,-0.49
2022-11-30T02:06:57.722Z,-0.49
2022-11-30T02:09:26.484Z,-0.49
2022-11-30T02:11:54.108Z,-0.47
2022-11-30T02:14:25.750Z,-0.46
2022-11-30T02:17:06.612Z,-0.44
2022-11-30T02:19:57.566Z,-0.43
2022-11-30T02:22:58.836Z,-0.41
2022-11-30T02:25:33.912Z,-0.39
2022-11-30T02:28:16.923Z,-0.35
2022-11-30T02:30:48.118Z,-0.31
2022-11-30T02:33:18.753Z,-0.31
2022-11-30T02:35:54.509Z,-0.35
2022-11-30T02:38:24.340Z,-0.37
2022-11-30T02:40:52.101Z,-0.42
2022-11-30T02:43:21.961Z,-0.45
2022-11-30T02:46:11.640Z,-0.46
2022-11-30T02:48:50.429Z,-0.48
2022-11-30T02:51:20.481Z,-0.50
2022-11-30T02:53:48.320Z,-0.50
2022-11-30T02:56:17.460Z,-0.52
2022-11-30T02:58:45.350Z,-0.53
2022-11-30T03:01:13.139Z,-0.54
2022-11-30T03:03:40.804Z,-0.51
2022-11-30T03:06:08.401Z,-0.50
2022-11-30T03:08:36.015Z,-0.48
2022-11-30T03:11:05.146Z,-0.46
2022-11-30T03:13:34.356Z,-0.43
2022-11-30T03:16:07.349Z,-0.39
2022-11-30T03:18:35.017Z,-0.39
2022-11-30T03:21:06.501Z,-0.41
2022-11-30T03:23:35.429Z,-0.47
2022-11-30T03:26:04.146Z,-0.51
2022-11-30T03:28:32.137Z,-0.51
2022-11-30T03:31:00.275Z,-0.52
2022-11-30T03:33:27.995Z,-0.56
2022-11-30T03:36:03.789Z,-0.58
2022-11-30T03:38:32.268Z,-0.58
2022-11-30T03:41:01.650Z,-0.56
2022-11-30T03:43:29.765Z,-0.56
2022-11-30T03:45:57.795Z,-0.56
2022-11-30T03:48:25.471Z,-0.55
2022-11-30T03:50:53.201Z,-0.55
2022-11-30T03:53:22.713Z,-0.55
2022-11-30T03:55:55.428Z,-0.55
2022-11-30T03:58:23.780Z,-0.53
2022-11-30T04:00:59.795Z,-0.53
2022-11-30T04:03:27.448Z,-0.52
2022-11-30T04:05:55.650Z,-0.52
2022-11-30T04:08:23.415Z,-0.52
2022-11-30T04:10:52.247Z,-0.53
2022-11-30T04:13:21.311Z,-0.51
2022-11-30T04:15:50.527Z,-0.50
2022-11-30T04:18:19.513Z,-0.49
2022-11-30T04:20:47.431Z,-0.46
2022-11-30T04:23:15.095Z,-0.44
2022-11-30T04:25:42.720Z,-0.44
2022-11-30T04:28:10.802Z,-0.42
2022-11-30T04:30:38.417Z,-0.40
2022-11-30T04:33:06.224Z,-0.38
2022-11-30T04:35:33.997Z,-0.41
2022-11-30T04:38:01.591Z,-0.39
2022-11-30T04:40:29.200Z,-0.38
2022-11-30T04:42:56.820Z,-0.37
2022-11-30T04:45:24.414Z,-0.38
2022-11-30T04:47:52.000Z,-0.38
2022-11-30T04:50:19.683Z,-0.40
2022-11-30T04:52:47.295Z,-0.41
2022-11-30T04:55:17.212Z,-0.41
2022-11-30T04:57:46.514Z,-0.38
2022-11-30T05:00:16.309Z,-0.37
2022-11-30T05:02:49.014Z,-0.37
2022-11-30T05:05:20.249Z,-0.33
2022-11-30T05:07:55.069Z,-0.31
2022-11-30T05:10:23.518Z,-0.29
2022-11-30T05:12:51.295Z,-0.27
2022-11-30T05:15:19.287Z,-0.27
2022-11-30T05:17:46.955Z,-0.28
2022-11-30T05:20:14.672Z,-0.31
2022-11-30T05:22:42.766Z,-0.32
2022-11-30T05:25:10.574Z,-0.33
2022-11-30T05:27:38.234Z,-0.35
2022-11-30T05:30:06.754Z,-0.37
2022-11-30T05:32:35.107Z,-0.36
2022-11-30T05:35:02.764Z,-0.35
2022-11-30T05:37:30.566Z,-0.33
2022-11-30T05:39:58.181Z,-0.33
2022-11-30T05:42:25.862Z,-0.30
2022-11-30T05:44:53.523Z,-0.29
2022-11-30T05:47:21.116Z,-0.26
2022-11-30T05:49:48.727Z,-0.26
2022-11-30T05:52:16.302Z,-0.25
2022-11-30T05:54:43.923Z,-0.26
2022-11-30T05:57:11.500Z,-0.26
2022-11-30T05:59:39.107Z,-0.26
2022-11-30T06:02:06.768Z,-0.26
2022-11-30T06:04:34.776Z,-0.25
2022-11-30T06:07:02.462Z,-0.25
2022-11-30T06:09:30.179Z,-0.23
2022-11-30T06:11:57.761Z,-0.23
2022-11-30T06:14:25.353Z,-0.25
2022-11-30T06:16:53.092Z,-0.26
2022-11-30T06:19:20.821Z,-0.25
2022-11-30T06:21:48.416Z,-0.23
2022-11-30T06:24:16.007Z,-0.22
2022-11-30T06:26:43.609Z,-0.21
2022-11-30T06:29:11.641Z,-0.19
2022-11-30T06:31:39.350Z,-0.16
2022-11-30T06:34:06.996Z,-0.14
2022-11-30T06:36:36.382Z,-0.13
2022-11-30T06:39:04.926Z,-0.13
2022-11-30T06:41:32.564Z,-0.13
2022-11-30T06:44:00.275Z,-0.12
2022-11-30T06:46:27.972Z,-0.14
2022-11-30T06:48:55.838Z,-0.16
2022-11-30T06:51:23.430Z,-0.19
2022-11-30T06:53:51.055Z,-0.21
2022-11-30T06:56:18.809Z,-0.21
2022-11-30T06:58:46.539Z,-0.19
2022-11-30T07:01:15.273Z,-0.17
2022-11-30T07:03:43.753Z,-0.16
2022-11-30T07:06:13.050Z,-0.18
2022-11-30T07:08:41.471Z,-0.20
2022-11-30T07:11:10.520Z,-0.20
2022-11-30T07:13:38.597Z,-0.20
2022-11-30T07:16:07.982Z,-0.21
2022-11-30T07:18:35.880Z,-0.21
2022-11-30T07:21:05.256Z,-0.23
2022-11-30T07:23:56.329Z,-0.24
2022-11-30T07:26:25.432Z,-0.26
2022-11-30T07:28:55.198Z,-0.25
2022-11-30T07:31:26.033Z,-0.23
2022-11-30T07:33:54.513Z,-0.23
2022-11-30T07:36:23.838Z,-0.22
2022-11-30T07:38:51.865Z,-0.21
2022-11-30T07:41:19.522Z,-0.21
2022-11-30T07:43:47.135Z,-0.19
2022-11-30T07:46:15.894Z,-0.17
2022-11-30T07:48:44.548Z,-0.16
2022-11-30T07:51:14.652Z,-0.17
2022-11-30T07:53:42.909Z,-0.18
2022-11-30T07:56:15.829Z,-0.16
2022-11-30T07:58:44.176Z,-0.13
2022-11-30T08:01:17.884Z,-0.10
2022-11-30T08:03:45.644Z,-0.08
2022-11-30T08:06:15.288Z,-0.06
2022-11-30T08:08:44.610Z,-0.05
2022-11-30T08:11:14.617Z,-0.05
2022-11-30T08:13:43.262Z,-0.07
2022-11-30T08:16:13.544Z,-0.09
2022-11-30T08:18:41.980Z,-0.08
2022-11-30T08:21:12.063Z,-0.05
2022-11-30T08:23:42.186Z,-0.05
2022-11-30T08:26:18.162Z,-0.03
2022-11-30T08:28:47.434Z,-0.01
2022-11-30T08:31:29.524Z,0.02
2022-11-30T08:33:59.895Z,0.07
2022-11-30T08:36:28.880Z,0.06
2022-11-30T08:38:58.331Z,0.08
2022-11-30T08:41:26.304Z,0.04
2022-11-30T08:43:54.369Z,-0.00
2022-11-30T08:49:26.551Z,-0.03
2022-11-30T08:57:33.348Z,-0.05
2022-11-30T09:00:01.079Z,-0.06
2022-11-30T09:02:28.764Z,-0.07
2022-11-30T09:04:57.024Z,-0.06
2022-11-30T09:07:24.712Z,-0.06
2022-11-30T09:09:52.394Z,-0.05
2022-11-30T09:12:20.011Z,-0.03
2022-11-30T09:14:53.867Z,-0.03
2022-11-30T09:17:23.706Z,-0.02
2022-11-30T09:19:51.370Z,-0.01
2022-11-30T09:22:19.345Z,0.02
2022-11-30T09:24:47.376Z,0.03
2022-11-30T09:27:15.353Z,0.07
2022-11-30T09:29:42.975Z,0.09
2022-11-30T09:32:10.595Z,0.11
2022-11-30T09:34:38.332Z,0.15
2022-11-30T09:37:05.963Z,0.18
2022-11-30T09:39:33.584Z,0.21
2022-11-30T09:42:24.687Z,0.26
2022-11-30T09:45:03.005Z,0.29
2022-11-30T09:47:45.934Z,0.32
2022-11-30T09:50:19.386Z,0.34
2022-11-30T09:52:50.328Z,0.36
2022-11-30T09:55:26.307Z,0.37
2022-11-30T09:58:00.297Z,0.37
2022-11-30T10:00:28.205Z,0.40
2022-11-30T10:02:57.779Z,0.42
2022-11-30T10:05:31.836Z,0.43
2022-11-30T10:08:38.344Z,0.43
2022-11-30T10:11:24.527Z,0.40
2022-11-30T10:14:14.143Z,0.39
2022-11-30T10:16:58.039Z,0.34
2022-11-30T10:19:45.046Z,0.34
2022-11-30T10:22:31.333Z,0.31
2022-11-30T10:25:33.985Z,0.27
2022-11-30T10:28:44.873Z,0.26
2022-11-30T10:31:04.033Z,0.28
2022-11-30T10:33:38.738Z,0.33
2022-11-30T10:36:12.403Z,0.37
2022-11-30T10:38:44.358Z,0.41
2022-11-30T10:41:17.775Z,0.45
2022-11-30T10:44:13.404Z,0.47
2022-11-30T10:46:44.505Z,0.48
2022-11-30T10:49:17.504Z,0.50
2022-11-30T10:51:47.975Z,0.53
2022-11-30T10:54:18.870Z,0.54
2022-11-30T10:56:47.210Z,0.53
2022-11-30T10:59:37.287Z,0.51
2022-11-30T11:02:35.224Z,0.50
2022-11-30T11:05:30.953Z,0.48
2022-11-30T11:08:25.054Z,0.49
2022-11-30T11:10:52.831Z,0.52
2022-11-30T11:13:38.510Z,0.57
2022-11-30T11:16:09.223Z,0.64
2022-11-30T11:18:52.018Z,0.69
2022-11-30T11:21:21.747Z,0.73
2022-11-30T11:23:57.110Z,0.78
2022-11-30T11:26:29.388Z,0.83
2022-11-30T11:29:01.190Z,0.85
2022-11-30T11:31:40.979Z,0.88
2022-11-30T11:34:24.844Z,0.89
2022-11-30T11:37:19.213Z,0.91
2022-11-30T11:40:14.584Z,0.91
2022-11-30T11:42:51.298Z,0.90
2022-11-30T11:45:22.920Z,0.91
2022-11-30T11:48:02.074Z,0.93
2022-11-30T11:51:05.137Z,0.94
2022-11-30T11:53:25.398Z,0.96
2022-11-30T11:56:00.248Z,0.97
2022-11-30T11:58:37.498Z,0.99
2022-11-30T12:01:38.749Z,1.02
2022-11-30T12:04:18.648Z,1.01
2022-11-30T12:06:46.555Z,1.01
2022-11-30T12:09:24.240Z,1.03
2022-11-30T12:11:51.976Z,1.05
2022-11-30T12:14:19.652Z,1.05
2022-11-30T12:17:16.742Z,1.06
2022-11-30T12:20:13.989Z,1.07
2022-11-30T12:23:08.029Z,1.05
2022-11-30T12:25:51.121Z,1.05
2022-11-30T12:28:35.623Z,1.07
2022-11-30T12:31:11.741Z,1.10
2022-11-30T12:34:01.855Z,1.12
2022-11-30T12:36:52.031Z,1.13
2022-11-30T12:39:45.544Z,1.14
2022-11-30T12:42:25.721Z,1.13
2022-11-30T12:45:09.021Z,1.15
2022-11-30T12:47:58.323Z,1.16
2022-11-30T12:51:07.117Z,1.18
2022-11-30T12:53:53.920Z,1.18
2022-11-30T12:56:48.569Z,1.16
2022-11-30T12:59:52.668Z,1.15
2022-11-30T13:02:32.644Z,1.15
2022-11-30T13:05:04.282Z,1.16
2022-11-30T13:07:43.872Z,1.18
2022-11-30T13:10:35.316Z,1.18
2022-11-30T13:13:04.488Z,1.19
2022-11-30T13:15:35.393Z,1.20
2022-11-30T13:18:03.788Z,1.25
2022-11-30T13:20:42.459Z,1.28
2022-11-30T13:23:15.042Z,1.29
2022-11-30T13:26:07.343Z,1.31
2022-11-30T13:28:42.533Z,1.30
2022-11-30T13:31:21.295Z,1.32
2022-11-30T13:33:55.301Z,1.31
2022-11-30T13:36:43.506Z,1.29
2022-11-30T13:39:14.120Z,1.28
2022-11-30T13:41:49.238Z,1.29
2022-11-30T13:44:37.149Z,1.29
2022-11-30T13:47:06.927Z,1.28
2022-11-30T13:49:35.891Z,1.28
2022-11-30T13:54:54.605Z,1.30
2022-11-30T13:57:25.352Z,1.31
2022-11-30T14:00:00.278Z,1.30
2022-11-30T14:02:51.382Z,1.28
2022-11-30T14:05:35.106Z,1.25
2022-11-30T14:08:03.017Z,1.24
2022-11-30T14:10:32.864Z,1.26
2022-11-30T14:13:02.678Z,1.26
2022-11-30T14:15:39.560Z,1.26
2022-11-30T14:18:10.086Z,1.25
2022-11-30T14:21:19.788Z,1.26
2022-11-30T14:23:58.013Z,1.25
2022-11-30T14:26:29.117Z,1.25
2022-11-30T14:29:04.440Z,1.26
2022-11-30T14:31:37.461Z,1.27
2022-11-30T14:34:09.986Z,1.30
2022-11-30T14:36:42.050Z,1.30
2022-11-30T14:39:33.948Z,1.28
2022-11-30T14:42:02.602Z,1.24
2022-11-30T14:44:40.329Z,1.22
2022-11-30T14:47:30.935Z,1.18
2022-11-30T14:50:02.562Z,1.16
2022-11-30T14:52:52.297Z,1.16
2022-11-30T14:55:30.121Z,1.13
2022-11-30T14:58:12.661Z,1.11
2022-11-30T15:00:42.804Z,1.10
2022-11-30T15:03:40.913Z,1.07
2022-11-30T15:06:08.703Z,1.02
2022-11-30T15:08:43.337Z,1.03
2022-11-30T15:11:13.569Z,1.04
2022-11-30T15:13:53.840Z,1.02
2022-11-30T15:16:24.115Z,1.02
2022-11-30T15:18:53.608Z,1.00
2022-11-30T15:21:26.833Z,0.99
2022-11-30T15:23:57.184Z,0.95
2022-11-30T15:26:32.546Z,0.94
2022-11-30T15:29:16.870Z,0.92
2022-11-30T15:31:46.192Z,0.90
2022-11-30T15:34:45.578Z,0.89
2022-11-30T15:37:13.400Z,0.88
2022-11-30T15:39:48.615Z,0.88
2022-11-30T15:42:24.170Z,0.90
2022-11-30T15:44:52.988Z,0.88
2022-11-30T15:47:26.354Z,0.88
2022-11-30T15:49:55.445Z,0.89
2022-11-30T15:52:28.789Z,0.90
2022-11-30T15:55:03.227Z,0.91
2022-11-30T15:58:03.601Z,0.91
2022-11-30T16:00:31.579Z,0.87
2022-11-30T16:03:13.126Z,0.85
2022-11-30T16:05:54.136Z,0.84
2022-11-30T16:08:21.795Z,0.81
2022-11-30T16:10:49.840Z,0.79
2022-11-30T16:13:20.166Z,0.78
2022-11-30T16:15:49.988Z,0.78
2022-11-30T16:18:22.625Z,0.77
2022-11-30T16:20:56.654Z,0.74
2022-11-30T16:23:25.920Z,0.69
2022-11-30T16:25:54.036Z,0.65
2022-11-30T16:28:22.553Z,0.62
2022-11-30T16:30:51.030Z,0.62
2022-11-30T16:33:23.332Z,0.62
2022-11-30T16:36:02.688Z,0.60
2022-11-30T16:38:30.320Z,0.59
2022-11-30T16:41:18.067Z,0.59
2022-11-30T16:43:47.792Z,0.59
2022-11-30T16:46:18.105Z,0.59
2022-11-30T16:48:47.820Z,0.59
2022-11-30T16:51:21.687Z,0.60
2022-11-30T16:53:49.332Z,0.61
2022-11-30T16:56:17.332Z,0.61
2022-11-30T16:58:45.638Z,0.63
2022-11-30T17:01:17.138Z,0.65
2022-11-30T17:03:50.304Z,0.68
2022-11-30T17:06:20.528Z,0.70
2022-11-30T17:08:49.110Z,0.70
2022-11-30T17:11:29.262Z,0.71
2022-11-30T17:13:56.869Z,0.72
2022-11-30T17:16:24.957Z,0.73
2022-11-30T17:18:52.595Z,0.76
2022-11-30T17:21:24.372Z,0.78
2022-11-30T17:23:51.956Z,0.79
2022-11-30T17:26:19.703Z,0.82
2022-11-30T17:28:47.441Z,0.83
2022-11-30T17:31:15.737Z,0.83
2022-11-30T17:33:47.948Z,0.83
2022-11-30T17:36:16.935Z,0.84
2022-11-30T17:38:45.251Z,0.86
2022-11-30T17:41:18.825Z,0.88
2022-11-30T17:43:48.618Z,0.88
2022-11-30T17:46:18.275Z,0.89
2022-11-30T17:48:46.267Z,0.90
2022-11-30T17:51:14.014Z,0.93
2022-11-30T17:53:42.658Z,0.94
2022-11-30T17:56:12.964Z,0.95
2022-11-30T17:58:44.046Z,0.95
2022-11-30T18:01:26.140Z,0.97
2022-11-30T18:03:55.350Z,0.98
2022-11-30T18:06:23.211Z,1.01
2022-11-30T18:08:50.917Z,1.04
2022-11-30T18:11:20.840Z,1.05
2022-11-30T18:13:51.568Z,1.06
2022-11-30T18:16:22.075Z,1.05
2022-11-30T18:18:49.772Z,1.06
2022-11-30T18:21:19.438Z,1.06
2022-11-30T18:23:47.912Z,1.07
2022-11-30T18:26:21.664Z,1.07
2022-11-30T18:28:55.302Z,1.07
2022-11-30T18:31:23.056Z,1.06
2022-11-30T18:33:58.010Z,1.06
2022-11-30T18:36:25.890Z,1.06
2022-11-30T18:38:53.994Z,1.04
2022-11-30T18:41:22.199Z,1.06
2022-11-30T18:43:49.816Z,1.06
2022-11-30T18:46:17.488Z,1.06
2022-11-30T18:48:48.316Z,1.06
2022-11-30T18:51:24.682Z,1.07
2022-11-30T18:54:00.855Z,1.07
2022-11-30T18:56:31.415Z,1.09
2022-11-30T18:59:01.635Z,1.11
2022-11-30T19:01:30.670Z,1.11
2022-11-30T19:04:05.137Z,1.13
2022-11-30T19:06:33.257Z,1.13
2022-11-30T19:09:03.617Z,1.15
2022-11-30T19:11:35.063Z,1.16
2022-11-30T19:14:03.827Z,1.19
2022-11-30T19:16:34.513Z,1.21
2022-11-30T19:19:06.159Z,1.22
2022-11-30T19:21:34.269Z,1.22
2022-11-30T19:24:02.054Z,1.23
2022-11-30T19:26:30.102Z,1.24
2022-11-30T19:28:59.017Z,1.26
2022-11-30T19:31:26.844Z,1.28
2022-11-30T19:33:55.696Z,1.30
2022-11-30T19:36:26.114Z,1.29
2022-11-30T19:38:54.530Z,1.29
2022-11-30T19:41:22.217Z,1.30
2022-11-30T19:44:03.710Z,1.32
2022-11-30T19:46:33.267Z,1.33
2022-11-30T19:49:01.903Z,1.35
2022-11-30T19:51:30.950Z,1.37
2022-11-30T19:54:01.500Z,1.38
2022-11-30T19:56:31.249Z,1.39
2022-11-30T19:59:04.543Z,1.41
2022-11-30T20:01:35.253Z,1.41
2022-11-30T20:04:03.358Z,1.42
2022-11-30T20:06:34.061Z,1.43
2022-11-30T20:09:03.380Z,1.43
2022-11-30T20:11:31.606Z,1.44
2022-11-30T20:14:00.333Z,1.45
2022-11-30T20:16:28.612Z,1.46
2022-11-30T20:19:00.547Z,1.46
2022-11-30T20:21:33.570Z,1.46
2022-11-30T20:24:04.356Z,1.47
2022-11-30T20:26:37.327Z,1.48
2022-11-30T20:29:06.814Z,1.48
2022-11-30T20:31:36.164Z,1.49
2022-11-30T20:34:04.397Z,1.50
2022-11-30T20:36:32.112Z,1.49
2022-11-30T20:38:59.975Z,1.50
2022-11-30T20:41:27.665Z,1.51
2022-11-30T20:43:55.981Z,1.51
2022-11-30T20:46:27.991Z,1.50
2022-11-30T20:48:56.345Z,1.51
2022-11-30T20:51:31.709Z,1.52
2022-11-30T20:54:03.222Z,1.52
2022-11-30T20:56:32.736Z,1.53
2022-11-30T20:59:02.155Z,1.53
2022-11-30T21:01:30.175Z,1.55
2022-11-30T21:04:00.651Z,1.56
2022-11-30T21:06:29.958Z,1.55
2022-11-30T21:08:58.224Z,1.55
2022-11-30T21:11:27.498Z,1.55
2022-11-30T21:13:55.916Z,1.55
2022-11-30T21:16:28.081Z,1.55
2022-11-30T21:18:58.786Z,1.55
2022-11-30T21:21:30.688Z,1.56
2022-11-30T21:24:00.507Z,1.55
2022-11-30T21:26:34.401Z,1.56
2022-11-30T21:29:05.155Z,1.57
2022-11-30T21:31:33.687Z,1.57
2022-11-30T21:34:01.506Z,1.59
2022-11-30T21:36:29.549Z,1.59
2022-11-30T21:39:05.181Z,1.58
2022-11-30T21:41:38.256Z,1.59
2022-11-30T21:44:08.060Z,1.60
2022-11-30T21:46:35.910Z,1.61
2022-11-30T21:49:04.144Z,1.61
2022-11-30T21:51:32.017Z,1.60
2022-11-30T21:54:02.314Z,1.61
2022-11-30T21:56:32.764Z,1.62
2022-11-30T21:59:01.313Z,1.62
2022-11-30T22:01:31.947Z,1.61
2022-11-30T22:04:00.909Z,1.60
2022-11-30T22:06:29.988Z,1.61
2022-11-30T22:09:03.079Z,1.61
2022-11-30T22:11:31.214Z,1.61
2022-11-30T22:13:58.980Z,1.61
2022-11-30T22:16:32.586Z,1.62
2022-11-30T22:19:04.494Z,1.62
2022-11-30T22:21:32.495Z,1.62
2022-11-30T22:24:05.390Z,1.61
2022-11-30T22:26:35.449Z,1.61
2022-11-30T22:29:13.138Z,1.59
2022-11-30T22:31:43.816Z,1.58
2022-11-30T22:34:11.697Z,1.60
2022-11-30T22:36:40.902Z,1.63
2022-11-30T22:39:10.823Z,1.64
2022-11-30T22:41:39.392Z,1.65
2022-11-30T22:44:07.065Z,1.63
2022-11-30T22:46:36.749Z,1.65
2022-11-30T22:49:07.305Z,1.66
2022-11-30T22:51:36.245Z,1.66
2022-11-30T22:54:04.848Z,1.68
2022-11-30T22:56:37.633Z,1.67
2022-11-30T22:59:06.247Z,1.67
2022-11-30T23:01:36.885Z,1.68
2022-11-30T23:04:10.359Z,1.67
2022-11-30T23:06:39.303Z,1.66
2022-11-30T23:09:09.990Z,1.66
2022-11-30T23:11:37.709Z,1.68
2022-11-30T23:14:08.197Z,1.70
2022-11-30T23:16:36.763Z,1.72
2022-11-30T23:19:05.338Z,1.73
2022-11-30T23:21:40.640Z,1.74
2022-11-30T23:24:17.379Z,1.74
2022-11-30T23:26:45.080Z,1.73
2022-11-30T23:29:15.195Z,1.74
2022-11-30T23:31:44.019Z,1.75
2022-11-30T23:34:14.495Z,1.76
2022-11-30T23:36:42.517Z,1.78
2022-11-30T23:39:13.266Z,1.80
2022-11-30T23:41:41.332Z,1.79
2022-11-30T23:44:10.095Z,1.79
2022-11-30T23:46:38.522Z,1.79
2022-11-30T23:49:06.269Z,1.80
2022-11-30T23:51:34.211Z,1.81
2022-11-30T23:54:01.855Z,1.82
2022-11-30T23:56:29.479Z,1.82
2022-11-30T23:58:57.263Z,1.83
